aviador You're here:

KWVL Decoded Metar

WATERVILLE in ME, USA
Report Time2017-07-21 03:56:00
UTC Time2017-07-21 04:25:43
Flight Rules vfr VFR
WindCalm
Visibility9999 m
Phenomena:N/A
Clouds:N/A
Expected CloudBase > 400 ft AGL from Temp-Dew spread
CeilingNone
Temp19°C (ISA +5)
Dew Point18°C (94% RH)
QNH1009 hPa
Density Alt1,286 ft
Elevation331 ft
Report Wrong Elevation
Raw Report
METAR KWVL 210356Z AUTO 00000KT 8SM CLR 19/18 A2979 RMK AO2 SLPNO T01890183
402830189=

Extra information for KWVL:More info

Metar Taf Metar & Taf Last 4 Metars F.Rules Stats Wind Profile Meteogram Temp Stats Airport Information Weather charts Add Link Nearby VenuesMetar ALERT Operation Metar Decoded Social comments

AIRNAV info for KWVL